Cacaulandia, Brazil
Current Conditions -  °F | °C
As of 10:00 AM on Monday 24 Nov 2014 (Local Time) from SBPV Reporting Station
Scattered Clouds Scattered Clouds  
Wind Chill: 81°   Ceiling: Unl
Heat Index: 86°   Visibility: 6mi
Dew Point: 75°   Wind: 5mph
Humidity: 84%   Direction: 60°ENE
Pressure: 29.88"   Gusts: NA
Location:  10.34°S, 62.9°W
Report Text: SBPV 241400Z 06004KT 9999 SCT012 SCT080 27/24 Q1012
Loading
Personal Weather Stations






























Interactive Weather Map New forecast layout! Learn more

10-Day Weather Forecast

Advertisements
Track Severe Weather on mobile